Time;durP1;ratioP1;P1;durP2;ratioP2;P2;SDS_P1;SDS_P2;PMS_P1;PMS_P2;Temp;Humidity;BMP_temperature;BMP_pressure;BME280_temperature;BME280_humidity;BME280_pressure;Samples;Min_cycle;Max_cycle;Signal;HPM_P1;HPM_P2
2021/04/03 00:01:05;;;;;;;5.35;3.53;;;;;;;;;;5073038;28;20060;-18
2021/04/03 00:03:30;;;;;;;9.30;4.35;;;;;;;;;;5073343;28;20032;-19
2021/04/03 00:05:56;;;;;;;8.73;3.83;;;;;;;;;;5072894;28;20425;-18
2021/04/03 00:08:24;;;;;;;11.63;3.40;;;;;;;;;;5073162;28;20395;-18
2021/04/03 00:10:49;;;;;;;14.55;3.30;;;;;;;;;;5072814;28;20104;-18
2021/04/03 00:13:15;;;;;;;8.13;3.28;;;;;;;;;;5072917;28;20291;-18
2021/04/03 00:15:40;;;;;;;6.72;3.35;;;;;;;;;;5071182;28;20099;-18
2021/04/03 00:18:06;;;;;;;12.52;4.00;;;;;;;;;;5072726;28;20111;-18
2021/04/03 00:20:32;;;;;;;12.85;3.53;;;;;;;;;;5072796;28;20024;-18
2021/04/03 00:22:58;;;;;;;8.65;3.38;;;;;;;;;;5072998;28;20078;-18
2021/04/03 00:25:23;;;;;;;10.85;3.53;;;;;;;;;;5071334;28;20418;-19
2021/04/03 00:27:49;;;;;;;7.90;3.28;;;;;;;;;;5071171;28;20048;-18
2021/04/03 00:30:17;;;;;;;10.77;4.70;;;;;;;;;;5072504;28;20033;-18
2021/04/03 00:33:02;;;;;;;4.70;2.70;;;;;;;;;;5072753;28;20370;-18
2021/04/03 00:35:30;;;;;;;8.68;3.50;;;;;;;;;;5072088;28;20033;-18
2021/04/03 00:37:58;;;;;;;8.45;3.13;;;;;;;;;;5072376;28;20046;-18
2021/04/03 00:40:53;;;;;;;8.40;4.35;;;;;;;;;;5071210;28;20056;-18
2021/04/03 00:43:20;;;;;;;8.57;3.55;;;;;;;;;;5054238;28;20070;-18
2021/04/03 00:45:46;;;;;;;11.35;3.35;;;;;;;;;;5072286;28;20088;-18
2021/04/03 00:48:12;;;;;;;8.70;3.30;;;;;;;;;;5072275;28;20067;-18
2021/04/03 00:50:39;;;;;;;10.80;3.72;;;;;;;;;;5072442;28;20426;-18
2021/04/03 00:53:06;;;;;;;6.85;3.22;;;;;;;;;;5070978;28;20123;-18
2021/04/03 00:55:32;;;;;;;14.55;3.25;;;;;;;;;;5070995;28;20411;-18
2021/04/03 00:57:58;;;;;;;7.82;3.15;;;;;;;;;;5072384;28;20181;-18
2021/04/03 01:00:24;;;;;;;10.68;3.70;;;;;;;;;;5070961;28;20020;-18
2021/04/03 01:02:50;;;;;;;6.90;2.17;;;;;;;;;;5070861;28;20097;-18
2021/04/03 01:05:20;;;;;;;8.93;3.35;;;;;;;;;;5070789;28;20073;-18
2021/04/03 01:07:46;;;;;;;7.28;3.03;;;;;;;;;;5070748;28;20043;-19
2021/04/03 01:10:14;;;;;;;10.82;2.75;;;;;;;;;;5070791;28;20111;-18
2021/04/03 01:12:50;;;;;;;6.53;2.38;;;;;;;;;;5070683;28;20063;-18
2021/04/03 01:15:16;;;;;;;5.90;2.50;;;;;;;;;;5072407;28;20108;-17
2021/04/03 01:18:00;;;;;;;7.55;2.83;;;;;;;;;;5072005;28;20431;-18
2021/04/03 01:20:40;;;;;;;12.98;2.60;;;;;;;;;;5070719;28;20028;-18
2021/04/03 01:23:06;;;;;;;8.52;3.20;;;;;;;;;;5072345;28;20028;-18
2021/04/03 01:25:38;;;;;;;8.45;2.88;;;;;;;;;;5070409;28;20027;-19
2021/04/03 01:28:20;;;;;;;11.70;3.00;;;;;;;;;;5074328;28;20501;-18
2021/04/03 01:30:47;;;;;;;6.47;2.38;;;;;;;;;;5075895;28;20023;-18
2021/04/03 01:33:14;;;;;;;7.15;2.67;;;;;;;;;;5074711;28;20021;-18
2021/04/03 01:35:52;;;;;;;5.47;2.50;;;;;;;;;;5076170;28;20025;-18
2021/04/03 01:38:38;;;;;;;10.05;3.08;;;;;;;;;;5074704;28;20041;-18
2021/04/03 01:41:09;;;;;;;5.70;2.63;;;;;;;;;;5074434;28;20032;-18
2021/04/03 01:43:41;;;;;;;4.88;2.10;;;;;;;;;;5074387;28;20075;-18
2021/04/03 01:46:08;;;;;;;7.47;2.45;;;;;;;;;;5074339;28;20025;-18
2021/04/03 01:48:36;;;;;;;5.65;2.17;;;;;;;;;;5075729;28;20032;-18
2021/04/03 01:51:02;;;;;;;6.80;1.35;;;;;;;;;;5075871;28;20127;-18
2021/04/03 01:53:30;;;;;;;7.55;3.15;;;;;;;;;;5057892;28;20024;-16
2021/04/03 01:56:02;;;;;;;2.70;2.05;;;;;;;;;;5074146;28;20507;-16
2021/04/03 01:58:36;;;;;;;3.85;2.53;;;;;;;;;;5074108;28;20041;-17
2021/04/03 02:01:03;;;;;;;1.58;1.27;;;;;;;;;;5074157;28;20489;-17
2021/04/03 02:03:32;;;;;;;2.85;1.92;;;;;;;;;;5074087;28;20031;-18
2021/04/03 02:05:58;;;;;;;3.75;1.40;;;;;;;;;;5075317;28;20032;-18
2021/04/03 02:08:43;;;;;;;5.13;1.67;;;;;;;;;;5075411;28;20532;-17
2021/04/03 02:11:22;;;;;;;1.58;0.90;;;;;;;;;;5073972;28;20032;-18
2021/04/03 02:13:51;;;;;;;1.17;0.95;;;;;;;;;;5073833;28;20132;-17
2021/04/03 02:16:17;;;;;;;0.85;0.73;;;;;;;;;;5073745;28;20028;-18
2021/04/03 02:18:43;;;;;;;2.20;1.85;;;;;;;;;;5074917;28;20025;-18
2021/04/03 02:21:09;;;;;;;0.95;0.63;;;;;;;;;;5075352;28;20024;-18
2021/04/03 02:23:38;;;;;;;1.77;0.60;;;;;;;;;;5074895;28;20029;-18
2021/04/03 02:26:07;;;;;;;0.85;0.80;;;;;;;;;;5074978;28;20045;-18
2021/04/03 02:28:34;;;;;;;1.13;0.80;;;;;;;;;;5075030;28;20032;-18
2021/04/03 02:31:00;;;;;;;2.47;0.80;;;;;;;;;;5075085;28;20111;-18
2021/04/03 02:33:25;;;;;;;1.80;1.00;;;;;;;;;;5075150;28;20258;-18
2021/04/03 02:35:52;;;;;;;1.42;0.55;;;;;;;;;;5074736;28;20013;-18
2021/04/03 02:38:17;;;;;;;0.75;0.75;;;;;;;;;;5074723;28;20039;-18
2021/04/03 02:40:59;;;;;;;0.68;0.60;;;;;;;;;;5073486;28;20035;-18
2021/04/03 02:43:27;;;;;;;0.90;0.70;;;;;;;;;;5073516;28;20024;-18
2021/04/03 02:45:58;;;;;;;1.13;0.88;;;;;;;;;;5074742;28;20360;-18
2021/04/03 02:48:27;;;;;;;0.43;0.43;;;;;;;;;;5074537;28;20039;-18
2021/04/03 02:50:54;;;;;;;0.63;0.50;;;;;;;;;;5073129;28;20028;-18
2021/04/03 02:53:27;;;;;;;1.60;0.70;;;;;;;;;;5073087;28;20032;-18
2021/04/03 02:55:54;;;;;;;0.82;0.65;;;;;;;;;;5073052;28;20033;-18
2021/04/03 02:58:21;;;;;;;1.10;0.40;;;;;;;;;;5074426;28;20040;-18
2021/04/03 03:00:50;;;;;;;2.40;0.77;;;;;;;;;;5074440;28;20028;-18
2021/04/03 03:03:16;;;;;;;0.88;0.50;;;;;;;;;;5074325;28;20019;-19
2021/04/03 03:05:43;;;;;;;0.90;0.60;;;;;;;;;;5074388;28;20123;-18
2021/04/03 03:08:11;;;;;;;1.08;0.52;;;;;;;;;;5072730;28;20455;-17
2021/04/03 03:10:37;;;;;;;0.30;0.30;;;;;;;;;;5074345;28;20021;-17
2021/04/03 03:13:04;;;;;;;0.82;0.32;;;;;;;;;;5072745;28;20032;-18
2021/04/03 03:15:32;;;;;;;0.80;0.30;;;;;;;;;;5072793;28;20032;-18
2021/04/03 03:17:58;;;;;;;0.73;0.52;;;;;;;;;;5072670;28;20040;-18
2021/04/03 03:20:26;;;;;;;1.40;0.68;;;;;;;;;;5073987;28;20024;-18
2021/04/03 03:22:52;;;;;;;0.32;0.32;;;;;;;;;;5073844;28;20021;-18
2021/04/03 03:25:21;;;;;;;2.40;1.00;;;;;;;;;;5072468;28;20025;-20
2021/04/03 03:27:47;;;;;;;1.73;0.57;;;;;;;;;;5073584;28;20510;-18
2021/04/03 03:30:16;;;;;;;1.17;0.25;;;;;;;;;;5072513;28;20055;-18
2021/04/03 03:32:43;;;;;;;0.73;0.70;;;;;;;;;;5073534;28;20530;-18
2021/04/03 03:35:09;;;;;;;2.40;0.40;;;;;;;;;;5072333;28;20533;-20
2021/04/03 03:37:36;;;;;;;1.10;0.57;;;;;;;;;;5073443;28;20023;-18
2021/04/03 03:40:03;;;;;;;0.60;0.40;;;;;;;;;;5073614;28;20040;-18
2021/04/03 03:42:34;;;;;;;1.30;0.52;;;;;;;;;;5073499;28;20009;-18
2021/04/03 03:45:05;;;;;;;0.45;0.40;;;;;;;;;;5073509;28;20103;-18
2021/04/03 03:47:31;;;;;;;0.80;0.50;;;;;;;;;;5072018;28;20036;-18
2021/04/03 03:49:58;;;;;;;0.55;0.55;;;;;;;;;;5054862;28;20420;-18
2021/04/03 03:52:24;;;;;;;3.85;1.05;;;;;;;;;;5073526;28;20070;-20
2021/04/03 03:54:50;;;;;;;1.00;0.90;;;;;;;;;;5071939;28;20489;-18
2021/04/03 03:57:16;;;;;;;1.20;0.60;;;;;;;;;;5055238;28;20037;-18
2021/04/03 03:59:44;;;;;;;3.75;1.40;;;;;;;;;;5071849;28;20017;-18
2021/04/03 04:02:11;;;;;;;1.20;0.60;;;;;;;;;;5073208;28;20032;-18
2021/04/03 04:04:37;;;;;;;2.25;0.80;;;;;;;;;;5072972;28;20023;-18
2021/04/03 04:07:06;;;;;;;3.53;1.58;;;;;;;;;;5071431;28;20032;-18
2021/04/03 04:09:32;;;;;;;2.35;1.17;;;;;;;;;;5071674;28;20063;-18
2021/04/03 04:12:07;;;;;;;3.33;0.63;;;;;;;;;;5071373;28;20021;-18
2021/04/03 04:14:39;;;;;;;1.98;0.68;;;;;;;;;;5071544;28;20115;-17
2021/04/03 04:17:06;;;;;;;2.90;0.60;;;;;;;;;;5071372;28;20032;-18
2021/04/03 04:19:36;;;;;;;1.15;0.65;;;;;;;;;;5072737;28;20017;-18
2021/04/03 04:22:04;;;;;;;2.15;0.80;;;;;;;;;;5055133;28;20024;-18
2021/04/03 04:24:30;;;;;;;0.40;0.40;;;;;;;;;;5071364;28;20155;-18
2021/04/03 04:26:56;;;;;;;3.63;0.70;;;;;;;;;;5072390;28;20059;-19
2021/04/03 04:29:22;;;;;;;5.70;2.03;;;;;;;;;;5071317;28;20024;-18
2021/04/03 04:31:50;;;;;;;1.73;0.80;;;;;;;;;;5071138;28;20036;-18
2021/04/03 04:34:19;;;;;;;1.35;0.73;;;;;;;;;;5071343;28;20074;-18
2021/04/03 04:36:49;;;;;;;1.45;0.82;;;;;;;;;;5072695;28;20072;-18
2021/04/03 04:39:21;;;;;;;0.82;0.55;;;;;;;;;;5072521;28;20467;-18
2021/04/03 04:41:46;;;;;;;2.60;0.73;;;;;;;;;;5072612;28;20036;-18
2021/04/03 04:44:12;;;;;;;1.70;1.10;;;;;;;;;;5071198;28;20024;-18
2021/04/03 04:46:38;;;;;;;1.77;0.98;;;;;;;;;;5071879;28;20036;-22
2021/04/03 04:49:09;;;;;;;2.88;1.27;;;;;;;;;;5072169;28;20017;-18
2021/04/03 04:51:38;;;;;;;2.10;1.87;;;;;;;;;;5070970;28;20112;-19
2021/04/03 04:54:12;;;;;;;1.90;1.35;;;;;;;;;;5071029;28;20035;-18
2021/04/03 04:56:44;;;;;;;4.47;1.37;;;;;;;;;;5070927;28;20028;-17
2021/04/03 04:59:11;;;;;;;0.63;0.52;;;;;;;;;;5071058;28;20025;-18
2021/04/03 05:01:41;;;;;;;3.38;1.17;;;;;;;;;;5070901;28;20419;-17
2021/04/03 05:04:08;;;;;;;0.73;0.70;;;;;;;;;;5070808;28;20467;-18
2021/04/03 05:06:35;;;;;;;5.13;1.90;;;;;;;;;;5072224;28;20028;-18
2021/04/03 05:09:01;;;;;;;8.10;1.20;;;;;;;;;;5072115;28;20380;-18
2021/04/03 05:11:26;;;;;;;1.67;1.00;;;;;;;;;;5072189;28;20016;-17
2021/04/03 05:13:51;;;;;;;0.10;0.10;;;;;;;;;;5072354;28;20029;-18
2021/04/03 05:16:17;;;;;;;2.63;1.30;;;;;;;;;;5072057;28;20024;-18
2021/04/03 05:18:43;;;;;;;0.50;0.30;;;;;;;;;;5072253;28;20036;-24
2021/04/03 05:21:09;;;;;;;5.18;0.40;;;;;;;;;;5072109;28;20021;-18
2021/04/03 05:23:35;;;;;;;2.50;1.33;;;;;;;;;;5072094;28;20024;-17
2021/04/03 05:26:00;;;;;;;1.48;0.73;;;;;;;;;;5070888;28;20127;-17
2021/04/03 05:28:25;;;;;;;7.97;2.20;;;;;;;;;;5071995;28;20483;-17
2021/04/03 05:30:51;;;;;;;2.17;0.85;;;;;;;;;;5071997;28;20150;-17
2021/04/03 05:33:16;;;;;;;1.48;0.60;;;;;;;;;;5071999;28;20037;-17
2021/04/03 05:35:42;;;;;;;1.42;1.08;;;;;;;;;;5071811;28;20016;-18
2021/04/03 05:38:07;;;;;;;4.43;0.90;;;;;;;;;;5070672;28;20035;-17
2021/04/03 05:40:33;;;;;;;1.95;0.75;;;;;;;;;;5070561;28;20043;-17
2021/04/03 05:43:01;;;;;;;1.30;0.50;;;;;;;;;;5071709;28;20040;-18
2021/04/03 05:45:27;;;;;;;0.20;0.20;;;;;;;;;;5071916;28;20495;-17
2021/04/03 05:47:53;;;;;;;4.40;1.45;;;;;;;;;;5071543;28;20045;-17
2021/04/03 05:50:19;;;;;;;1.13;0.32;;;;;;;;;;5071746;28;20021;-18
2021/04/03 05:52:47;;;;;;;1.00;0.70;;;;;;;;;;5070299;28;20039;-17
2021/04/03 05:55:13;;;;;;;2.72;1.23;;;;;;;;;;5071817;28;20017;-17
2021/04/03 05:57:39;;;;;;;1.42;0.77;;;;;;;;;;5071393;28;20490;-17
2021/04/03 06:00:05;;;;;;;0.30;0.30;;;;;;;;;;5071674;28;20016;-17
2021/04/03 06:02:39;;;;;;;0.80;0.60;;;;;;;;;;5071955;28;20518;-16
2021/04/03 06:05:06;;;;;;;1.55;0.63;;;;;;;;;;5070263;28;20537;-17
2021/04/03 06:07:31;;;;;;;3.88;1.65;;;;;;;;;;5071548;28;20074;-17
2021/04/03 06:09:58;;;;;;;3.80;1.70;;;;;;;;;;5071790;28;20028;-17
2021/04/03 06:12:38;;;;;;;2.25;1.50;;;;;;;;;;5071543;28;20031;-17
2021/04/03 06:15:04;;;;;;;0.77;0.65;;;;;;;;;;5075199;28;20033;-17
2021/04/03 06:17:30;;;;;;;0.43;0.10;;;;;;;;;;5075159;28;20023;-17
2021/04/03 06:19:55;;;;;;;1.50;1.33;;;;;;;;;;5075027;28;20052;-17
2021/04/03 06:22:20;;;;;;;3.58;1.17;;;;;;;;;;5075056;28;20016;-17
2021/04/03 06:24:46;;;;;;;1.65;0.85;;;;;;;;;;5075270;28;20035;-17
2021/04/03 06:27:12;;;;;;;1.60;1.10;;;;;;;;;;5074741;28;20499;-18
2021/04/03 06:30:14;;;;;;;4.45;1.58;;;;;;;;;;5074653;28;20391;-17
2021/04/03 06:32:40;;;;;;;2.17;1.17;;;;;;;;;;5074648;28;20031;-17
2021/04/03 06:35:05;;;;;;;3.60;1.40;;;;;;;;;;5074533;28;20040;-17
2021/04/03 06:37:33;;;;;;;3.55;2.10;;;;;;;;;;5074808;28;20055;-17
2021/04/03 06:39:58;;;;;;;3.03;2.00;;;;;;;;;;5074859;28;20021;-17
2021/04/03 06:42:36;;;;;;;4.45;2.60;;;;;;;;;;5074716;28;20033;-17
2021/04/03 06:45:17;;;;;;;0.50;0.50;;;;;;;;;;5074732;28;20410;-18
2021/04/03 06:47:44;;;;;;;4.15;1.80;;;;;;;;;;5074385;28;20533;-17
2021/04/03 06:50:09;;;;;;;3.10;1.67;;;;;;;;;;5074926;28;20025;-17
2021/04/03 06:52:35;;;;;;;3.13;2.30;;;;;;;;;;5074570;28;20036;-17
2021/04/03 06:55:01;;;;;;;4.18;2.63;;;;;;;;;;5074278;28;20019;-17
2021/04/03 06:57:27;;;;;;;5.70;3.10;;;;;;;;;;4719610;28;10000496;-17
2021/04/03 06:59:53;;;;;;;6.63;3.03;;;;;;;;;;5070110;28;20043;-18
2021/04/03 07:02:20;;;;;;;4.70;2.33;;;;;;;;;;5070990;28;20025;-18
2021/04/03 07:04:47;;;;;;;1.48;0.68;;;;;;;;;;5070604;28;20013;-18
2021/04/03 07:07:13;;;;;;;4.22;3.08;;;;;;;;;;5064568;28;20072;-18
2021/04/03 07:09:40;;;;;;;1.88;1.45;;;;;;;;;;5060160;28;20048;-18
2021/04/03 07:12:06;;;;;;;3.65;2.58;;;;;;;;;;5054074;28;20032;-18
2021/04/03 07:14:32;;;;;;;4.10;2.55;;;;;;;;;;5050124;28;20028;-18
2021/04/03 07:16:58;;;;;;;4.18;2.55;;;;;;;;;;5050251;28;20037;-16
2021/04/03 07:19:27;;;;;;;5.25;2.83;;;;;;;;;;5050679;28;20060;-17
2021/04/03 07:21:53;;;;;;;5.97;3.00;;;;;;;;;;5050295;28;20369;-17
2021/04/03 07:24:18;;;;;;;3.85;2.63;;;;;;;;;;5049632;28;20028;-18
2021/04/03 07:26:45;;;;;;;6.90;3.13;;;;;;;;;;5049490;28;20053;-19
2021/04/03 07:29:37;;;;;;;6.65;3.42;;;;;;;;;;5050299;28;20025;-17
2021/04/03 07:32:02;;;;;;;3.67;2.00;;;;;;;;;;5065152;28;20102;-17
2021/04/03 07:34:38;;;;;;;4.28;3.22;;;;;;;;;;5070044;28;20020;-17
2021/04/03 07:37:08;;;;;;;6.07;3.08;;;;;;;;;;5069255;28;20029;-17
2021/04/03 07:39:34;;;;;;;5.60;3.35;;;;;;;;;;5069925;28;20023;-18
2021/04/03 07:41:59;;;;;;;7.82;2.55;;;;;;;;;;5069826;28;20434;-17
2021/04/03 07:44:32;;;;;;;3.63;1.90;;;;;;;;;;5069354;28;20074;-17
2021/04/03 07:46:57;;;;;;;3.60;2.50;;;;;;;;;;5069680;28;20604;-18
2021/04/03 07:49:33;;;;;;;3.95;1.77;;;;;;;;;;5069331;28;20008;-17
2021/04/03 07:51:58;;;;;;;5.00;2.47;;;;;;;;;;5068811;28;20147;-17
2021/04/03 07:54:25;;;;;;;4.07;2.60;;;;;;;;;;5069514;28;20781;-17
2021/04/03 07:56:52;;;;;;;4.45;2.30;;;;;;;;;;5064516;28;20033;-17
2021/04/03 07:59:18;;;;;;;3.85;2.13;;;;;;;;;;5049723;28;20021;-17
2021/04/03 08:01:45;;;;;;;3.90;2.00;;;;;;;;;;5049340;28;20442;-17
2021/04/03 08:04:10;;;;;;;3.50;1.80;;;;;;;;;;5049618;28;20047;-18
2021/04/03 08:06:37;;;;;;;3.15;2.25;;;;;;;;;;5049470;28;20037;-17
2021/04/03 08:09:04;;;;;;;4.45;2.50;;;;;;;;;;5047704;28;20024;-17
2021/04/03 08:11:29;;;;;;;5.10;2.58;;;;;;;;;;5049058;28;20021;-17
2021/04/03 08:13:55;;;;;;;4.10;2.55;;;;;;;;;;5060397;28;20378;-17
2021/04/03 08:16:22;;;;;;;3.95;2.13;;;;;;;;;;5069287;28;20020;-17
2021/04/03 08:18:51;;;;;;;3.63;2.15;;;;;;;;;;5069005;28;20024;-17
2021/04/03 08:21:17;;;;;;;3.90;2.65;;;;;;;;;;5068534;28;20036;-17
2021/04/03 08:23:44;;;;;;;3.97;2.55;;;;;;;;;;5069203;28;20115;-18
2021/04/03 08:26:10;;;;;;;5.70;2.10;;;;;;;;;;5067284;28;20044;-18
2021/04/03 08:28:35;;;;;;;3.33;2.15;;;;;;;;;;5068906;28;20442;-18
2021/04/03 08:31:14;;;;;;;5.30;2.22;;;;;;;;;;5069238;28;20510;-17
2021/04/03 08:33:40;;;;;;;5.90;2.17;;;;;;;;;;5068820;28;20032;-17
2021/04/03 08:36:11;;;;;;;4.45;2.88;;;;;;;;;;5068532;28;20370;-17
2021/04/03 08:38:38;;;;;;;4.10;1.90;;;;;;;;;;5068653;28;20028;-17
2021/04/03 08:41:03;;;;;;;4.40;2.42;;;;;;;;;;5067215;28;20027;-17
2021/04/03 08:43:30;;;;;;;3.28;1.80;;;;;;;;;;5066827;28;20024;-17
2021/04/03 08:46:01;;;;;;;2.97;1.95;;;;;;;;;;5067144;28;20016;-17
2021/04/03 08:48:30;;;;;;;4.35;2.58;;;;;;;;;;5068818;28;20075;-17
2021/04/03 08:50:56;;;;;;;5.20;2.30;;;;;;;;;;5068430;28;20103;-17
2021/04/03 08:53:21;;;;;;;1.55;1.30;;;;;;;;;;5068630;28;20115;-17
2021/04/03 08:55:47;;;;;;;0.90;0.82;;;;;;;;;;5067730;28;20016;-17
2021/04/03 08:58:12;;;;;;;3.03;2.10;;;;;;;;;;5048826;28;20037;-17
2021/04/03 09:00:38;;;;;;;2.97;1.60;;;;;;;;;;5048421;28;20543;-17
2021/04/03 09:03:05;;;;;;;2.47;1.83;;;;;;;;;;5049025;28;20064;-17
2021/04/03 09:05:31;;;;;;;3.03;1.70;;;;;;;;;;5047085;28;20032;-17
2021/04/03 09:07:56;;;;;;;2.28;1.73;;;;;;;;;;5046489;28;20045;-17
2021/04/03 09:10:25;;;;;;;1.85;0.95;;;;;;;;;;5048589;28;20032;-17
2021/04/03 09:12:51;;;;;;;3.47;2.00;;;;;;;;;;5048450;28;20025;-17
2021/04/03 09:15:24;;;;;;;3.67;1.42;;;;;;;;;;5047054;28;20039;-17
2021/04/03 09:17:54;;;;;;;2.10;1.50;;;;;;;;;;5063123;28;20067;-17
2021/04/03 09:20:24;;;;;;;2.15;1.90;;;;;;;;;;5046743;28;20037;-17
2021/04/03 09:22:51;;;;;;;4.43;2.60;;;;;;;;;;5062060;28;20025;-17
2021/04/03 09:25:18;;;;;;;4.55;2.08;;;;;;;;;;5068409;28;20025;-17
2021/04/03 09:27:56;;;;;;;4.15;1.80;;;;;;;;;;5066650;28;20105;-16
2021/04/03 09:30:29;;;;;;;3.30;1.73;;;;;;;;;;5068091;28;20112;-17
2021/04/03 09:32:55;;;;;;;2.83;2.00;;;;;;;;;;5067867;28;20017;-17
2021/04/03 09:35:21;;;;;;;2.63;1.38;;;;;;;;;;5068568;28;20028;-16
2021/04/03 09:37:57;;;;;;;1.20;0.70;;;;;;;;;;5049968;28;20025;-17
2021/04/03 09:40:32;;;;;;;3.10;2.80;;;;;;;;;;5065591;28;20036;-16
2021/04/03 09:42:57;;;;;;;2.92;2.08;;;;;;;;;;5068094;28;20108;-17
2021/04/03 09:45:23;;;;;;;3.05;2.55;;;;;;;;;;5066437;28;20124;-17
2021/04/03 09:47:48;;;;;;;3.67;2.08;;;;;;;;;;5065206;28;20127;-17
2021/04/03 09:50:14;;;;;;;3.40;2.35;;;;;;;;;;5052151;28;20060;-17
2021/04/03 09:52:39;;;;;;;3.72;2.42;;;;;;;;;;5070298;28;20111;-17
2021/04/03 09:55:05;;;;;;;3.25;1.77;;;;;;;;;;5058178;28;20067;-17
2021/04/03 09:57:31;;;;;;;3.70;1.98;;;;;;;;;;5066148;28;20024;-17
2021/04/03 09:59:56;;;;;;;1.60;1.50;;;;;;;;;;5071480;28;20024;-17
2021/04/03 10:02:21;;;;;;;4.53;1.63;;;;;;;;;;5071534;28;20040;-17
2021/04/03 10:04:47;;;;;;;3.50;2.00;;;;;;;;;;5070131;28;20059;-17
2021/04/03 10:07:12;;;;;;;3.45;2.10;;;;;;;;;;5069780;28;20047;-17
2021/04/03 10:09:37;;;;;;;3.40;2.00;;;;;;;;;;5071622;28;20522;-17
2021/04/03 10:12:03;;;;;;;3.30;1.80;;;;;;;;;;5070331;28;20505;-17
2021/04/03 10:14:29;;;;;;;1.90;1.20;;;;;;;;;;5071605;28;20070;-17
2021/04/03 10:16:54;;;;;;;4.90;2.10;;;;;;;;;;5053722;28;20504;-17
2021/04/03 10:19:20;;;;;;;1.77;1.48;;;;;;;;;;5051037;28;20021;-17
2021/04/03 10:21:45;;;;;;;3.10;2.15;;;;;;;;;;5050918;28;20021;-17
2021/04/03 10:24:11;;;;;;;1.67;0.95;;;;;;;;;;5051585;28;20155;-17
2021/04/03 10:26:37;;;;;;;1.85;1.42;;;;;;;;;;5051444;28;20072;-17
2021/04/03 10:29:02;;;;;;;2.95;1.20;;;;;;;;;;5051283;28;20041;-17
2021/04/03 10:31:28;;;;;;;2.08;1.30;;;;;;;;;;5051363;28;20021;-17
2021/04/03 10:33:53;;;;;;;1.83;1.17;;;;;;;;;;5061153;28;20455;-17
2021/04/03 10:36:19;;;;;;;4.30;1.10;;;;;;;;;;5052618;28;20036;-17
2021/04/03 10:38:47;;;;;;;2.95;1.90;;;;;;;;;;5070671;28;20382;-17
2021/04/03 10:41:14;;;;;;;2.10;0.98;;;;;;;;;;5070749;28;20081;-17
2021/04/03 10:43:39;;;;;;;1.98;1.15;;;;;;;;;;5070539;28;20499;-18
2021/04/03 10:46:08;;;;;;;6.38;1.52;;;;;;;;;;5070807;28;20024;-17
2021/04/03 10:48:33;;;;;;;2.13;1.33;;;;;;;;;;5069914;28;20468;-17
2021/04/03 10:50:59;;;;;;;1.88;1.17;;;;;;;;;;5071232;28;20035;-18
2021/04/03 10:53:25;;;;;;;2.13;1.25;;;;;;;;;;5064499;28;20150;-17
2021/04/03 10:55:50;;;;;;;2.50;1.48;;;;;;;;;;5057595;28;20039;-17
2021/04/03 10:58:16;;;;;;;1.30;1.20;;;;;;;;;;5069565;28;20513;-17
2021/04/03 11:00:41;;;;;;;3.65;1.92;;;;;;;;;;5068948;28;20246;-17
2021/04/03 11:03:07;;;;;;;1.15;0.90;;;;;;;;;;5070530;28;20364;-17
2021/04/03 11:05:32;;;;;;;1.83;1.38;;;;;;;;;;5071095;28;20055;-17
2021/04/03 11:07:58;;;;;;;2.90;1.50;;;;;;;;;;5070444;28;20032;-17
2021/04/03 11:10:24;;;;;;;2.95;1.70;;;;;;;;;;5069471;28;20028;-18
2021/04/03 11:12:49;;;;;;;3.70;2.25;;;;;;;;;;5071176;28;20646;-17
2021/04/03 11:15:15;;;;;;;2.58;1.70;;;;;;;;;;5069509;28;20039;-17
2021/04/03 11:17:40;;;;;;;3.08;1.98;;;;;;;;;;5070796;28;20031;-17
2021/04/03 11:20:07;;;;;;;1.75;1.30;;;;;;;;;;5070568;28;20024;-17
2021/04/03 11:22:32;;;;;;;1.92;1.10;;;;;;;;;;5069037;28;20391;-17
2021/04/03 11:24:58;;;;;;;1.45;1.23;;;;;;;;;;5070083;28;20077;-18
2021/04/03 11:27:23;;;;;;;2.42;1.80;;;;;;;;;;5070250;28;20044;-17
2021/04/03 11:29:49;;;;;;;1.88;1.25;;;;;;;;;;5070289;28;20028;-17
2021/04/03 11:32:14;;;;;;;6.57;1.90;;;;;;;;;;5069569;28;20023;-21
2021/04/03 11:34:40;;;;;;;1.15;0.90;;;;;;;;;;5070031;28;20060;-19
2021/04/03 11:37:05;;;;;;;2.50;1.80;;;;;;;;;;5070388;28;20103;-18
2021/04/03 11:39:31;;;;;;;3.85;1.20;;;;;;;;;;5070019;28;20410;-18
2021/04/03 11:41:57;;;;;;;3.63;1.67;;;;;;;;;;5069950;28;20020;-18
2021/04/03 11:44:24;;;;;;;1.65;1.40;;;;;;;;;;5068161;28;20036;-18
2021/04/03 11:46:50;;;;;;;2.88;1.35;;;;;;;;;;5069529;28;20032;-16
2021/04/03 11:49:16;;;;;;;1.00;0.30;;;;;;;;;;5070152;28;20672;-17
2021/04/03 11:51:41;;;;;;;1.95;1.10;;;;;;;;;;5069786;28;20104;-17
2021/04/03 11:54:07;;;;;;;2.33;1.50;;;;;;;;;;5069508;28;20555;-17
2021/04/03 11:56:32;;;;;;;1.77;1.50;;;;;;;;;;5052675;28;20075;-17
2021/04/03 11:58:58;;;;;;;1.67;1.20;;;;;;;;;;5050129;28;20035;-17
2021/04/03 12:01:23;;;;;;;2.25;1.30;;;;;;;;;;5048976;28;20456;-17
2021/04/03 12:03:49;;;;;;;2.35;1.38;;;;;;;;;;5049733;28;20064;-17
2021/04/03 12:06:14;;;;;;;0.90;0.80;;;;;;;;;;5050104;28;20020;-17
2021/04/03 12:08:40;;;;;;;1.48;1.08;;;;;;;;;;5049296;28;20037;-18
2021/04/03 12:11:05;;;;;;;1.70;1.30;;;;;;;;;;5049081;28;20384;-17
2021/04/03 12:13:30;;;;;;;1.08;0.77;;;;;;;;;;5049489;28;20041;-17
2021/04/03 12:15:56;;;;;;;1.63;1.23;;;;;;;;;;5049851;28;20120;-17
2021/04/03 12:18:21;;;;;;;1.35;1.02;;;;;;;;;;5049800;28;20090;-18
2021/04/03 12:20:47;;;;;;;3.78;2.00;;;;;;;;;;5049158;28;20036;-18
2021/04/03 12:23:12;;;;;;;3.17;1.30;;;;;;;;;;5049641;28;20068;-17
2021/04/03 12:25:38;;;;;;;1.20;1.10;;;;;;;;;;5049294;28;20024;-17
2021/04/03 12:28:03;;;;;;;1.75;1.42;;;;;;;;;;5048967;28;20763;-17
2021/04/03 12:30:29;;;;;;;2.03;1.13;;;;;;;;;;5049409;28;20033;-18
2021/04/03 12:32:54;;;;;;;1.88;0.98;;;;;;;;;;5048768;28;20532;-17
2021/04/03 12:35:20;;;;;;;2.75;1.15;;;;;;;;;;5049482;28;20024;-17
2021/04/03 12:37:45;;;;;;;6.03;1.95;;;;;;;;;;5047673;28;20021;-18
2021/04/03 12:40:12;;;;;;;2.55;1.30;;;;;;;;;;5049530;28;20086;-18
2021/04/03 12:42:37;;;;;;;1.92;1.38;;;;;;;;;;5049101;28;20036;-17
2021/04/03 12:45:03;;;;;;;6.60;1.80;;;;;;;;;;5048429;28;20025;-17
2021/04/03 12:47:29;;;;;;;2.75;1.80;;;;;;;;;;5049314;28;20118;-18
2021/04/03 12:49:54;;;;;;;2.90;1.52;;;;;;;;;;5047691;28;20024;-17
2021/04/03 12:52:19;;;;;;;2.05;1.33;;;;;;;;;;5049181;28;20483;-17
2021/04/03 12:54:45;;;;;;;2.28;1.77;;;;;;;;;;5049130;28;20388;-17
2021/04/03 12:57:10;;;;;;;1.40;1.17;;;;;;;;;;5048709;28;20777;-17
2021/04/03 12:59:36;;;;;;;0.60;0.50;;;;;;;;;;5048742;28;20017;-16
2021/04/03 13:02:01;;;;;;;1.20;0.88;;;;;;;;;;5048906;28;20040;-17
2021/04/03 13:04:27;;;;;;;2.20;1.10;;;;;;;;;;5049083;28;20017;-17
2021/04/03 13:06:52;;;;;;;2.65;1.00;;;;;;;;;;5048982;28;20051;-17
2021/04/03 13:09:17;;;;;;;1.35;0.90;;;;;;;;;;5048616;28;20025;-17
2021/04/03 13:11:43;;;;;;;1.88;0.80;;;;;;;;;;5048672;28;20133;-17
2021/04/03 13:14:08;;;;;;;0.40;0.40;;;;;;;;;;5048618;28;20067;-17
2021/04/03 13:16:34;;;;;;;0.77;0.68;;;;;;;;;;5048727;28;20033;-17
2021/04/03 13:18:59;;;;;;;3.97;1.73;;;;;;;;;;5047284;28;20419;-17
2021/04/03 13:21:24;;;;;;;1.63;1.13;;;;;;;;;;5047944;28;20087;-17
2021/04/03 13:23:50;;;;;;;1.25;0.70;;;;;;;;;;5050885;28;20119;-17
2021/04/03 13:26:15;;;;;;;1.45;0.80;;;;;;;;;;5052794;28;20053;-18
2021/04/03 13:28:41;;;;;;;1.23;0.90;;;;;;;;;;5052891;28;20122;-17
2021/04/03 13:31:06;;;;;;;2.03;0.80;;;;;;;;;;5061909;28;20060;-17
2021/04/03 13:33:32;;;;;;;1.05;0.90;;;;;;;;;;5072053;28;20036;-17
2021/04/03 13:35:57;;;;;;;1.77;0.90;;;;;;;;;;5072674;28;20060;-16
2021/04/03 13:38:23;;;;;;;1.25;0.98;;;;;;;;;;5072460;28;20107;-17
2021/04/03 13:40:48;;;;;;;1.13;0.75;;;;;;;;;;5071875;28;20154;-18
2021/04/03 13:43:13;;;;;;;2.97;0.77;;;;;;;;;;5071927;28;20570;-17
2021/04/03 13:45:39;;;;;;;0.60;0.50;;;;;;;;;;5071981;28;20491;-17
2021/04/03 13:48:05;;;;;;;0.93;0.75;;;;;;;;;;5071995;28;20050;-17
2021/04/03 13:50:31;;;;;;;4.90;1.38;;;;;;;;;;5071902;28;20067;-18
2021/04/03 13:52:56;;;;;;;0.63;0.60;;;;;;;;;;5072093;28;20060;-17
2021/04/03 13:55:21;;;;;;;0.70;0.60;;;;;;;;;;5057771;28;20064;-17
2021/04/03 13:57:47;;;;;;;2.83;0.60;;;;;;;;;;5051467;28;20381;-18
2021/04/03 14:00:13;;;;;;;1.13;0.70;;;;;;;;;;5051743;28;20079;-18
2021/04/03 14:02:38;;;;;;;1.05;0.73;;;;;;;;;;5051819;28;20543;-18
2021/04/03 14:05:04;;;;;;;1.05;0.60;;;;;;;;;;5053563;28;20519;-18
2021/04/03 14:07:29;;;;;;;0.40;0.30;;;;;;;;;;5070992;28;20423;-19
2021/04/03 14:09:55;;;;;;;0.70;0.50;;;;;;;;;;5057504;28;20032;-18
2021/04/03 14:12:20;;;;;;;0.35;0.35;;;;;;;;;;5071427;28;20063;-18
2021/04/03 14:14:46;;;;;;;0.52;0.40;;;;;;;;;;5071304;28;20543;-18
2021/04/03 14:17:11;;;;;;;0.15;0.15;;;;;;;;;;5071535;28;20348;-18
2021/04/03 14:19:37;;;;;;;0.85;0.40;;;;;;;;;;5071136;28;20120;-18
2021/04/03 14:22:02;;;;;;;1.42;0.47;;;;;;;;;;5069947;28;20031;-18
2021/04/03 14:24:27;;;;;;;0.77;0.40;;;;;;;;;;5071396;28;20090;-17
2021/04/03 14:26:53;;;;;;;1.38;0.50;;;;;;;;;;5071122;28;20048;-18
2021/04/03 14:29:18;;;;;;;0.68;0.47;;;;;;;;;;5070926;28;20082;-17
2021/04/03 14:31:44;;;;;;;0.70;0.50;;;;;;;;;;5051262;28;20016;-17
2021/04/03 14:34:09;;;;;;;0.32;0.32;;;;;;;;;;5048828;28;20113;-17
2021/04/03 14:36:35;;;;;;;1.90;0.55;;;;;;;;;;5050629;28;20020;-18
2021/04/03 14:39:01;;;;;;;0.93;0.40;;;;;;;;;;5051038;28;20029;-17
2021/04/03 14:41:26;;;;;;;0.75;0.60;;;;;;;;;;5063803;28;20016;-18
2021/04/03 14:43:51;;;;;;;3.85;0.93;;;;;;;;;;5068798;28;20044;-18